createdAt,value
2022-08-27T00:03:29.976Z,4.78
2022-08-27T00:13:33.382Z,4.28
2022-08-27T00:23:38.418Z,4.25
2022-08-27T00:33:41.822Z,3.85
2022-08-27T00:43:49.187Z,4.47
2022-08-27T00:53:53.537Z,4.43
2022-08-27T01:04:06.439Z,4.45
2022-08-27T01:14:10.159Z,4.22
2022-08-27T01:24:30.591Z,4.68
2022-08-27T01:34:33.914Z,4.25
2022-08-27T01:44:49.264Z,4.22
2022-08-27T01:54:52.814Z,4.32
2022-08-27T02:04:57.396Z,4.20
2022-08-27T02:15:01.564Z,4.40
2022-08-27T02:25:10.234Z,4.35
2022-08-27T02:35:13.959Z,4.53
2022-08-27T02:45:20.461Z,4.20
2022-08-27T02:55:23.960Z,4.55
2022-08-27T03:05:29.235Z,4.35
2022-08-27T03:15:32.595Z,4.35
2022-08-27T03:25:37.379Z,4.28
2022-08-27T03:35:40.783Z,4.45
2022-08-27T03:45:48.362Z,4.10
2022-08-27T03:56:04.761Z,4.50
2022-08-27T04:06:09.574Z,4.20
2022-08-27T04:16:12.836Z,3.97
2022-08-27T04:26:17.445Z,4.18
2022-08-27T04:36:21.426Z,4.10
2022-08-27T04:46:28.732Z,4.00
2022-08-27T04:56:32.529Z,4.15
2022-08-27T05:06:37.735Z,4.22
2022-08-27T05:16:41.108Z,4.53
2022-08-27T05:26:45.920Z,4.90
2022-08-27T05:36:49.350Z,5.45
2022-08-27T05:46:54.168Z,4.62
2022-08-27T05:56:57.306Z,3.85
2022-08-27T06:07:03.115Z,3.53
2022-08-27T06:17:07.777Z,3.37
2022-08-27T06:27:14.538Z,3.33
2022-08-27T06:37:17.701Z,4.00
2022-08-27T06:47:22.367Z,3.75
2022-08-27T06:57:25.607Z,3.37
2022-08-27T07:07:34.457Z,3.58
2022-08-27T07:17:41.940Z,3.37
2022-08-27T07:27:46.833Z,3.42
2022-08-27T07:37:50.015Z,3.95
2022-08-27T07:47:54.912Z,3.75
2022-08-27T07:57:58.114Z,3.70
2022-08-27T08:08:02.775Z,3.22
2022-08-27T08:18:06.116Z,2.85
2022-08-27T08:28:11.650Z,2.87
2022-08-27T08:38:15.121Z,2.62
2022-08-27T08:48:22.363Z,2.55
2022-08-27T08:58:34.567Z,3.05
2022-08-27T09:08:42.102Z,2.60
2022-08-27T09:18:45.795Z,2.53
2022-08-27T09:29:20.111Z,2.53
2022-08-27T09:39:29.707Z,2.35
2022-08-27T09:59:42.790Z,2.60
2022-08-27T10:09:52.083Z,2.10
2022-08-27T10:20:03.349Z,2.47
2022-08-27T10:30:10.230Z,2.53
2022-08-27T10:40:18.459Z,1.90
2022-08-27T10:50:29.048Z,2.00
2022-08-27T11:00:41.213Z,2.03
2022-08-27T11:10:48.997Z,2.28
2022-08-27T11:20:55.488Z,2.10
2022-08-27T11:31:04.989Z,2.15
2022-08-27T11:41:33.353Z,2.05
2022-08-27T11:51:58.652Z,2.60
2022-08-27T12:02:14.441Z,2.40
2022-08-27T12:12:23.371Z,2.10
2022-08-27T12:22:56.100Z,2.20
2022-08-27T12:33:05.749Z,1.98
2022-08-27T12:43:13.640Z,2.12
2022-08-27T12:53:36.355Z,2.00
2022-08-27T13:03:41.350Z,1.90
2022-08-27T13:13:46.201Z,2.30
2022-08-27T13:23:55.195Z,2.20
2022-08-27T13:34:00.200Z,2.50
2022-08-27T13:44:08.539Z,2.03
2022-08-27T13:54:14.314Z,2.40
2022-08-27T14:04:24.025Z,2.00
2022-08-27T14:14:28.817Z,2.03
2022-08-27T14:24:32.014Z,2.87
2022-08-27T14:34:37.085Z,2.20
2022-08-27T14:44:40.528Z,2.53
2022-08-27T14:54:45.308Z,2.30
2022-08-27T15:04:48.894Z,2.50
2022-08-27T15:14:53.494Z,2.10
2022-08-27T15:24:57.855Z,2.22
2022-08-27T15:35:05.122Z,1.98
2022-08-27T15:45:09.943Z,2.03
2022-08-27T15:55:22.533Z,2.28
2022-08-27T16:05:32.948Z,2.40
2022-08-27T16:15:39.541Z,2.50
2022-08-27T16:25:43.127Z,2.50
2022-08-27T16:35:48.369Z,2.70
2022-08-27T16:45:52.843Z,3.00
2022-08-27T16:55:57.561Z,3.00
2022-08-27T17:06:00.733Z,3.60
2022-08-27T17:16:07.306Z,3.20
2022-08-27T17:26:12.322Z,9.85
2022-08-27T17:36:16.981Z,10.48
2022-08-27T17:46:20.270Z,4.70
2022-08-27T17:56:25.069Z,3.50
2022-08-27T18:06:31.097Z,4.12
2022-08-27T18:16:36.080Z,3.42
2022-08-27T18:26:39.926Z,8.88
2022-08-27T18:36:44.549Z,11.40
2022-08-27T18:46:48.161Z,32.13
2022-08-27T18:56:52.720Z,18.25
2022-08-27T19:06:55.856Z,36.72
2022-08-27T19:17:03.326Z,19.87
2022-08-27T19:27:07.397Z,12.65
2022-08-27T19:37:22.158Z,18.33
2022-08-27T19:47:26.029Z,11.90
2022-08-27T19:57:30.707Z,5.15
2022-08-27T20:07:35.216Z,3.78
2022-08-27T20:17:39.858Z,4.07
2022-08-27T20:27:43.112Z,4.05
2022-08-27T20:37:47.953Z,4.87
2022-08-27T20:47:51.584Z,5.55
2022-08-27T20:58:13.855Z,4.57
2022-08-27T21:08:19.314Z,4.70
2022-08-27T21:18:29.213Z,4.43
2022-08-27T21:38:37.463Z,4.07
2022-08-27T21:48:40.623Z,4.62
2022-08-27T21:58:45.240Z,4.60
2022-08-27T22:08:48.976Z,3.92
2022-08-27T22:18:54.689Z,4.20
2022-08-27T22:28:58.410Z,4.07
2022-08-27T22:39:04.088Z,4.18
2022-08-27T22:49:07.393Z,4.20
2022-08-27T22:59:11.947Z,4.35
2022-08-27T23:09:15.200Z,4.43
2022-08-27T23:19:19.945Z,4.40
2022-08-27T23:29:23.238Z,4.32
2022-08-27T23:39:27.834Z,3.72
2022-08-27T23:49:32.281Z,4.10
2022-08-27T23:59:36.878Z,3.80
